Portada
METAR-TAF:

METAR-TAF

Aeropuertos :

Aeropuerto Internacional Rey Abdulaziz

Yida, Arabia Saudita

latitud: 21-42N, longitud: 039-11E, altitud: 15 m

Observación

El informe se hizo hace 10 horas y 49 minutos, a las 05:00 UTC
Viento 8 kt del oeste-noroeste
Temperatura 33°C
Humedad 63%
Presión 1004 hPa
Visibilidad 10 km o más
Escasas nubes a una altura de 4000 ft

METAR: OEJN 210500Z 30008KT 9999 FEW040 33/25 Q1004 NOSIG

Hora: 18:49 (15:49 UTC)

Pronóstico

El informe se hizo hace 10 horas y 49 minutos, a las 05:00 UTC
Pronóstico válido del 21 a las 06 UTC al 22 a las 12 UTC
Viento 10 kt del oeste-noroeste con ráfagas de 20 kt
Visibilidad 10 km o más
sin nubes por debajo de 1500 m y sin presencia de cumulonimbus.

TAF: OEJN 210500Z 2106/2212 29010G20KT CAVOK

Observaciones y pronósticos meteorológicos de más de 4000 aeropuertos (mensajes METAR y TAF).

Los puntos amarillos y rojos representan las estaciones disponibles.

Ponga el ratón en el punto deseado para ver el nombre de la estación.

Haga clic para ver las observaciones y los pronósticos meteorológicos.

Para cambiar el mapa : haga clic en los botones verdes con una cruz de color negro para hacer un zoom, en el botón verde con un guión para alejar o en las flechas verdes para mapas adyacentes.


METAR-TAF: